Time;durP1;ratioP1;P1;durP2;ratioP2;P2;SDS_P1;SDS_P2;PMS_P1;PMS_P2;Temp;Humidity;BMP_temperature;BMP_pressure;BME280_temperature;BME280_humidity;BME280_pressure;Samples;Min_cycle;Max_cycle;Signal;HPM_P1;HPM_P2
2021/06/08 00:00:16;;;;;;;11.55;7.82;;;;;;;19.45;98.92;101672.69;5066406;28;20108;-74
2021/06/08 00:02:42;;;;;;;12.68;8.57;;;;;;;19.51;99.06;101674.63;5070682;28;20039;-74
2021/06/08 00:05:09;;;;;;;10.43;8.18;;;;;;;19.64;97.98;101677.75;5053294;28;20533;-75
2021/06/08 00:07:34;;;;;;;13.48;9.52;;;;;;;19.41;98.20;101674.63;5061334;28;20071;-75
2021/06/08 00:10:00;;;;;;;12.88;9.02;;;;;;;19.47;98.34;101673.06;5062912;28;20032;-74
2021/06/08 00:12:25;;;;;;;11.13;8.60;;;;;;;19.42;98.66;101665.25;5061990;28;20086;-75
2021/06/08 00:14:51;;;;;;;12.35;8.75;;;;;;;19.47;98.50;101668.38;5062495;28;20033;-74
2021/06/08 00:17:16;;;;;;;14.55;9.52;;;;;;;19.55;98.32;101663.72;5064529;28;20500;-74
2021/06/08 00:19:42;;;;;;;11.15;8.60;;;;;;;19.39;98.84;101668.78;5065476;28;20021;-74
2021/06/08 00:22:07;;;;;;;16.10;9.75;;;;;;;19.18;99.52;101666.75;5070149;28;20032;-75
2021/06/08 00:24:33;;;;;;;12.10;9.10;;;;;;;19.23;100.00;101673.78;5073636;28;20056;-74
2021/06/08 00:26:58;;;;;;;10.52;8.35;;;;;;;19.18;100.00;101665.97;5063326;28;20025;-74
2021/06/08 00:29:23;;;;;;;11.15;8.70;;;;;;;19.31;99.81;101667.16;5051317;28;20409;-74
2021/06/08 00:31:49;;;;;;;16.90;9.25;;;;;;;19.20;99.57;101671.84;5057596;28;20155;-75
2021/06/08 00:34:14;;;;;;;12.82;9.05;;;;;;;19.36;99.35;101667.59;5067292;28;20042;-75
2021/06/08 00:36:40;;;;;;;11.88;8.60;;;;;;;19.22;100.00;101672.22;5053514;28;20037;-74
2021/06/08 00:39:05;;;;;;;11.55;9.10;;;;;;;19.16;100.00;101671.06;5059625;28;20032;-74
2021/06/08 00:41:42;;;;;;;10.73;8.73;;;;;;;19.38;99.82;101667.97;5052083;28;20042;-75
2021/06/08 00:44:12;;;;;;;11.85;9.77;;;;;;;19.23;99.94;101671.06;5063903;28;20104;-74
2021/06/08 00:46:43;;;;;;;11.88;9.35;;;;;;;19.19;100.00;101665.59;5068015;28;20423;-74
2021/06/08 00:49:08;;;;;;;11.23;8.98;;;;;;;18.97;100.00;101661.25;5066303;28;20036;-75
2021/06/08 00:51:34;;;;;;;12.60;10.15;;;;;;;18.99;100.00;101664.38;5064602;28;20021;-74
2021/06/08 00:54:05;;;;;;;13.98;10.00;;;;;;;18.99;100.00;101660.88;5054384;28;20069;-74
2021/06/08 00:56:32;;;;;;;12.57;9.38;;;;;;;19.02;100.00;101658.16;5057259;28;20040;-74
2021/06/08 00:58:57;;;;;;;15.52;10.00;;;;;;;18.98;100.00;101673.75;5069878;28;20040;-74
2021/06/08 01:01:23;;;;;;;13.25;9.32;;;;;;;19.01;100.00;101658.53;5079601;28;20032;-74
2021/06/08 01:03:48;;;;;;;11.60;8.98;;;;;;;18.87;100.00;101657.31;5087520;28;20071;-74
2021/06/08 01:06:14;;;;;;;14.07;9.73;;;;;;;18.98;100.00;101651.91;5083627;28;20035;-75
2021/06/08 01:08:40;;;;;;;12.50;9.18;;;;;;;19.12;100.00;101653.88;5079624;28;20029;-74
2021/06/08 01:11:05;;;;;;;11.57;9.55;;;;;;;19.08;100.00;101647.63;5059457;28;20078;-74
2021/06/08 01:13:31;;;;;;;14.48;9.88;;;;;;;19.17;100.00;101654.28;5064328;28;20029;-74
2021/06/08 01:15:56;;;;;;;12.35;9.75;;;;;;;19.22;100.00;101650.38;5069849;28;20546;-75
2021/06/08 01:18:22;;;;;;;16.10;10.57;;;;;;;19.26;99.74;101657.38;5066057;28;20059;-75
2021/06/08 01:20:53;;;;;;;13.00;10.40;;;;;;;19.24;99.57;101654.28;5061079;28;20056;-75
2021/06/08 01:23:19;;;;;;;12.43;9.90;;;;;;;19.20;100.00;101650.75;5066306;28;20028;-74
2021/06/08 01:25:44;;;;;;;13.57;9.77;;;;;;;19.04;99.95;101647.63;5070513;28;20052;-75
2021/06/08 01:28:10;;;;;;;12.23;10.00;;;;;;;18.98;100.00;101651.09;5075431;28;20098;-75
2021/06/08 01:30:37;;;;;;;14.63;9.02;;;;;;;18.96;100.00;101650.72;5054024;28;20065;-74
2021/06/08 01:33:03;;;;;;;11.48;9.10;;;;;;;18.97;100.00;101660.47;5062801;28;20032;-74
2021/06/08 01:35:30;;;;;;;11.05;8.85;;;;;;;19.06;99.68;101652.69;5066208;28;20518;-74
2021/06/08 01:37:55;;;;;;;12.73;8.90;;;;;;;19.02;100.00;101660.09;5065989;28;20412;-74
2021/06/08 01:40:21;;;;;;;11.13;8.63;;;;;;;19.02;99.88;101652.69;5065508;28;20119;-75
2021/06/08 01:42:48;;;;;;;12.02;8.93;;;;;;;18.93;99.07;101660.44;5065214;28;20048;-75
2021/06/08 01:45:16;;;;;;;10.10;7.78;;;;;;;18.80;100.00;101662.78;5060037;28;20033;-75
2021/06/08 01:47:42;;;;;;;9.80;8.32;;;;;;;18.60;100.00;101655.31;5071773;28;20071;-75
2021/06/08 01:50:08;;;;;;;11.73;8.00;;;;;;;18.51;100.00;101665.78;5059331;28;20044;-75
2021/06/08 01:52:39;;;;;;;10.95;8.40;;;;;;;18.59;100.00;101656.44;5074712;28;20043;-75
2021/06/08 01:55:17;;;;;;;10.10;8.18;;;;;;;18.68;99.63;101656.88;5073949;28;20097;-75
2021/06/08 01:58:02;;;;;;;10.68;8.43;;;;;;;18.70;99.61;101654.53;5058578;28;20463;-75
2021/06/08 02:00:44;;;;;;;9.75;8.20;;;;;;;18.70;99.66;101655.31;5067311;28;20035;-75
2021/06/08 02:03:13;;;;;;;10.70;7.90;;;;;;;18.80;99.12;101646.41;5068715;28;20047;-75
2021/06/08 02:05:47;;;;;;;10.32;8.60;;;;;;;18.63;100.00;101668.16;5085298;28;20020;-75
2021/06/08 02:08:45;;;;;;;12.15;8.98;;;;;;;18.63;100.00;101658.03;5072639;28;20033;-75
2021/06/08 02:11:13;;;;;;;9.90;8.18;;;;;;;18.65;99.37;101655.72;5057224;28;20098;-75
2021/06/08 02:14:24;;;;;;;9.70;7.72;;;;;;;18.72;99.19;101652.19;5069109;28;20047;-75
2021/06/08 02:16:53;;;;;;;12.00;8.43;;;;;;;18.54;100.00;101652.13;5066080;28;20408;-75
2021/06/08 02:19:21;;;;;;;10.48;7.95;;;;;;;18.60;99.37;101658.03;5064778;28;20027;-75
2021/06/08 02:21:50;;;;;;;11.68;8.63;;;;;;;18.66;98.50;101659.22;5082550;28;20024;-75
2021/06/08 02:24:22;;;;;;;16.30;8.80;;;;;;;18.77;97.69;101666.28;5066912;28;20040;-75
2021/06/08 02:26:49;;;;;;;11.40;8.75;;;;;;;18.53;99.24;101666.97;5062790;28;20056;-75
2021/06/08 02:29:18;;;;;;;14.73;8.48;;;;;;;18.47;98.96;101675.88;5071361;28;20035;-75
2021/06/08 02:31:44;;;;;;;11.18;8.18;;;;;;;18.59;99.12;101670.09;5066857;28;20059;-75
2021/06/08 02:34:15;;;;;;;10.60;8.60;;;;;;;18.58;98.13;101674.00;5070367;28;20029;-75
2021/06/08 02:36:43;;;;;;;13.02;8.35;;;;;;;18.50;99.03;101677.88;5068172;28;20047;-75
2021/06/08 02:39:09;;;;;;;12.65;8.63;;;;;;;18.60;97.95;101668.94;5058654;28;20033;-75
2021/06/08 02:41:35;;;;;;;11.45;8.90;;;;;;;18.47;98.66;101676.69;5057592;28;20101;-75
2021/06/08 02:44:02;;;;;;;12.60;8.40;;;;;;;18.30;98.68;101671.09;5080754;28;20174;-75
2021/06/08 02:46:28;;;;;;;11.93;8.27;;;;;;;18.09;99.96;101679.16;5070126;28;20033;-75
2021/06/08 02:48:54;;;;;;;12.00;8.70;;;;;;;18.08;100.00;101677.59;5070510;28;20026;-75
2021/06/08 02:51:24;;;;;;;13.45;8.57;;;;;;;18.09;100.00;101687.34;5075631;28;20089;-75
2021/06/08 02:53:52;;;;;;;12.88;9.38;;;;;;;18.02;100.00;101688.84;5058107;28;20062;-75
2021/06/08 02:56:18;;;;;;;11.98;8.43;;;;;;;18.30;99.74;101684.75;5069871;28;20587;-75
2021/06/08 02:58:45;;;;;;;14.52;8.40;;;;;;;18.20;99.75;101682.72;5080625;28;20068;-75
2021/06/08 03:01:14;;;;;;;10.98;8.63;;;;;;;18.48;98.39;101682.91;5084752;28;20036;-75
2021/06/08 03:03:41;;;;;;;14.23;8.60;;;;;;;18.52;98.25;101684.50;5070416;28;20118;-75
2021/06/08 03:06:16;;;;;;;11.38;9.23;;;;;;;18.60;97.33;101686.09;5064251;28;20162;-75
2021/06/08 03:08:54;;;;;;;13.75;8.70;;;;;;;18.53;98.22;101682.53;5061215;28;20488;-75
2021/06/08 03:11:24;;;;;;;11.48;8.88;;;;;;;18.44;98.57;101682.13;5067786;28;20036;-75
2021/06/08 03:13:51;;;;;;;13.30;9.07;;;;;;;18.44;99.80;101682.13;5055433;28;20169;-75
2021/06/08 03:16:19;;;;;;;11.73;8.75;;;;;;;18.40;99.90;101679.34;5064297;28;20025;-75
2021/06/08 03:18:47;;;;;;;16.00;9.60;;;;;;;18.31;99.96;101678.13;5055356;28;20052;-75
2021/06/08 03:21:19;;;;;;;11.95;9.07;;;;;;;18.31;100.00;101678.13;5066777;28;20553;-75
2021/06/08 03:23:50;;;;;;;12.70;9.52;;;;;;;18.44;99.79;101671.22;5073070;28;20514;-75
2021/06/08 03:26:18;;;;;;;11.38;9.00;;;;;;;18.42;99.87;101681.69;5060608;28;20021;-75
2021/06/08 03:28:45;;;;;;;16.58;9.25;;;;;;;18.37;100.00;101676.59;5054472;28;20485;-75
2021/06/08 03:31:12;;;;;;;11.77;9.45;;;;;;;18.32;100.00;101685.13;5056825;28;20041;-75
2021/06/08 03:33:40;;;;;;;12.23;8.95;;;;;;;18.34;100.00;101677.34;5073579;28;20545;-75
2021/06/08 03:36:07;;;;;;;12.43;9.48;;;;;;;18.34;100.00;101682.81;5070227;28;20024;-73
2021/06/08 03:38:33;;;;;;;11.75;8.95;;;;;;;18.45;100.00;101681.72;5072920;28;20484;-73
2021/06/08 03:40:59;;;;;;;12.13;9.05;;;;;;;18.61;100.00;101682.19;5073489;28;20086;-73
2021/06/08 03:43:26;;;;;;;12.48;8.35;;;;;;;18.49;100.00;101673.56;5071244;28;20024;-73
2021/06/08 03:45:52;;;;;;;13.63;9.50;;;;;;;18.51;100.00;101676.69;5066016;28;20059;-73
2021/06/08 03:48:18;;;;;;;11.73;8.88;;;;;;;18.61;100.00;101686.88;5060553;28;20102;-73
2021/06/08 03:50:45;;;;;;;11.70;8.93;;;;;;;18.79;99.84;101669.38;5072416;28;20039;-73
2021/06/08 03:53:11;;;;;;;11.25;9.43;;;;;;;18.64;100.00;101672.47;5071226;28;20044;-73
2021/06/08 03:55:37;;;;;;;15.20;9.70;;;;;;;18.84;98.92;101673.69;5070746;28;20036;-73
2021/06/08 03:58:11;;;;;;;13.70;9.75;;;;;;;18.74;99.16;101675.22;5070682;28;20537;-72
2021/06/08 04:00:38;;;;;;;11.55;9.20;;;;;;;18.76;100.00;101692.00;5075781;28;20077;-73
2021/06/08 04:03:06;;;;;;;11.50;9.57;;;;;;;18.83;99.49;101683.06;5067339;28;20085;-72
2021/06/08 04:05:32;;;;;;;12.70;9.15;;;;;;;18.87;99.72;101681.88;5061832;28;20035;-73
2021/06/08 04:07:58;;;;;;;10.40;8.70;;;;;;;18.96;98.63;101688.94;5060257;28;21045;-72
2021/06/08 04:10:25;;;;;;;13.00;8.90;;;;;;;18.98;98.87;101684.66;5066565;28;20036;-73
2021/06/08 04:12:51;;;;;;;13.02;8.82;;;;;;;19.03;98.12;101683.50;5058687;28;20125;-72
2021/06/08 04:15:18;;;;;;;15.18;9.32;;;;;;;19.08;98.18;101683.13;5065659;28;20040;-73
2021/06/08 04:17:44;;;;;;;13.13;9.27;;;;;;;19.00;98.57;101685.06;5072398;28;20035;-73
2021/06/08 04:20:11;;;;;;;12.35;9.00;;;;;;;18.99;98.73;101678.03;5069750;28;20020;-73
2021/06/08 04:22:39;;;;;;;12.18;8.55;;;;;;;19.00;98.57;101681.53;5066382;28;20558;-73
2021/06/08 04:25:06;;;;;;;12.73;9.23;;;;;;;18.85;99.52;101678.75;5070988;28;20050;-73
2021/06/08 04:27:34;;;;;;;14.70;9.40;;;;;;;18.90;99.14;101683.06;5056625;28;20033;-72
2021/06/08 04:30:00;;;;;;;11.90;9.07;;;;;;;19.03;98.67;101681.53;5057385;28;20257;-72
2021/06/08 04:32:26;;;;;;;15.75;9.32;;;;;;;19.18;97.93;101679.63;5053682;28;20095;-73
2021/06/08 04:34:54;;;;;;;13.52;9.15;;;;;;;19.26;97.60;101681.22;5049677;28;20119;-73
2021/06/08 04:37:20;;;;;;;13.73;8.88;;;;;;;19.06;99.66;101675.31;5066413;28;20400;-72
2021/06/08 04:39:46;;;;;;;13.45;9.15;;;;;;;19.07;100.00;101681.56;5062167;28;20112;-73
2021/06/08 04:42:14;;;;;;;12.23;8.65;;;;;;;18.93;100.00;101683.09;5065854;28;20040;-73
2021/06/08 04:44:48;;;;;;;14.05;9.00;;;;;;;18.85;99.72;101683.47;5064814;28;20056;-72
2021/06/08 04:47:19;;;;;;;12.18;9.13;;;;;;;19.01;99.28;101680.38;5072440;28;20044;-73
2021/06/08 04:49:45;;;;;;;16.15;8.48;;;;;;;18.98;98.96;101684.66;5066428;28;20039;-72
2021/06/08 04:52:11;;;;;;;12.88;8.60;;;;;;;18.86;100.00;101680.34;5062024;28;20040;-73
2021/06/08 04:54:37;;;;;;;13.80;8.38;;;;;;;18.76;100.00;101688.47;5073772;28;20495;-73
2021/06/08 04:57:06;;;;;;;11.43;8.68;;;;;;;18.98;100.00;101687.41;5071287;28;20024;-73
2021/06/08 04:59:37;;;;;;;10.85;7.95;;;;;;;19.27;98.55;101686.28;5066826;28;20029;-72
2021/06/08 05:02:07;;;;;;;15.82;7.93;;;;;;;19.38;98.28;101694.50;5070283;28;20472;-72
2021/06/08 05:04:37;;;;;;;15.95;8.07;;;;;;;19.43;97.55;101688.69;5073786;28;20074;-73
2021/06/08 05:07:07;;;;;;;10.77;7.40;;;;;;;19.41;97.05;101691.81;5069929;28;20098;-72
2021/06/08 05:09:39;;;;;;;11.93;7.80;;;;;;;19.46;97.01;101694.16;5064819;28;20170;-73
2021/06/08 05:12:07;;;;;;;11.02;7.47;;;;;;;19.29;97.81;101689.41;5067067;28;20031;-73
2021/06/08 05:14:34;;;;;;;11.25;7.45;;;;;;;19.46;97.67;101694.16;5070963;28;20029;-73
2021/06/08 05:17:02;;;;;;;9.55;6.70;;;;;;;19.51;96.91;101691.00;5065295;28;20039;-72
2021/06/08 05:19:29;;;;;;;10.10;7.60;;;;;;;19.51;98.38;101693.75;5079464;22;20052;-74
2021/06/08 05:21:56;;;;;;;12.25;7.28;;;;;;;19.53;98.62;101693.38;5060536;28;20044;-74
2021/06/08 05:24:24;;;;;;;8.35;7.03;;;;;;;19.68;96.43;101698.47;5067012;28;20094;-74
2021/06/08 05:26:50;;;;;;;12.07;7.75;;;;;;;19.58;96.70;101703.91;5061459;28;20036;-74
2021/06/08 05:29:21;;;;;;;11.98;6.95;;;;;;;19.57;96.64;101711.31;5062337;28;20032;-74
2021/06/08 05:31:47;;;;;;;10.82;7.60;;;;;;;19.69;96.51;101710.94;5070015;28;20504;-74
2021/06/08 05:34:17;;;;;;;12.75;7.75;;;;;;;19.77;96.17;101703.50;5069498;28;20461;-74
2021/06/08 05:36:43;;;;;;;12.43;7.20;;;;;;;19.79;95.43;101703.91;5064334;28;20098;-74
2021/06/08 05:39:10;;;;;;;10.32;7.40;;;;;;;19.91;94.85;101703.50;5065116;28;20032;-74
2021/06/08 05:41:36;;;;;;;9.02;6.82;;;;;;;19.93;95.34;101700.38;5066725;28;20136;-73
2021/06/08 05:44:01;;;;;;;12.43;7.13;;;;;;;19.97;95.33;101699.22;5069280;28;20111;-74
2021/06/08 05:46:28;;;;;;;12.82;7.50;;;;;;;20.01;94.92;101700.00;5067831;28;20036;-74
2021/06/08 05:48:54;;;;;;;8.27;6.53;;;;;;;19.97;95.57;101698.44;5066779;28;20072;-74
2021/06/08 05:51:23;;;;;;;9.55;7.32;;;;;;;19.95;95.07;101704.28;5071550;28;20056;-74
2021/06/08 05:53:50;;;;;;;12.82;8.00;;;;;;;19.94;95.47;101702.72;5068971;28;20044;-74
2021/06/08 05:56:16;;;;;;;9.93;6.57;;;;;;;19.93;95.73;101698.44;5069598;28;20063;-74
2021/06/08 05:58:42;;;;;;;10.32;7.15;;;;;;;20.00;95.26;101706.63;5069222;28;20036;-74
2021/06/08 06:01:10;;;;;;;8.40;6.97;;;;;;;20.04;94.89;101706.63;5069382;28;20469;-74
2021/06/08 06:03:37;;;;;;;10.65;6.72;;;;;;;20.20;94.02;101707.00;5070334;28;20540;-74
2021/06/08 06:06:23;;;;;;;11.15;7.18;;;;;;;20.17;93.83;101705.06;5070409;28;20043;-74
2021/06/08 06:08:49;;;;;;;15.68;7.20;;;;;;;20.20;94.11;101704.28;5015337;28;20459;-74
2021/06/08 06:11:16;;;;;;;10.73;7.32;;;;;;;19.93;93.87;101712.13;5008668;28;20046;-74
2021/06/08 06:13:47;;;;;;;10.88;6.85;;;;;;;19.98;94.43;101717.19;5000253;28;20065;-74
2021/06/08 06:16:16;;;;;;;;;;;;;;;19.94;94.82;101724.59;5015008;28;20037;-74
2021/06/08 06:18:41;;;;;;;13.05;6.80;;;;;;;20.24;94.30;101721.47;5010884;28;19941;-74
2021/06/08 06:21:08;;;;;;;12.32;6.63;;;;;;;20.40;92.76;101714.38;5011486;28;20072;-74
2021/06/08 06:23:34;;;;;;;7.82;6.82;;;;;;;20.36;93.15;101718.31;5023804;28;20129;-74
2021/06/08 06:26:00;;;;;;;10.50;6.40;;;;;;;20.27;93.29;101721.47;5014636;28;20061;-74
2021/06/08 06:28:46;;;;;;;8.55;6.00;;;;;;;20.33;93.51;101719.09;5013965;28;20100;-75
2021/06/08 06:31:12;;;;;;;7.78;5.80;;;;;;;20.32;93.11;101725.75;4912801;29;20497;-75
2021/06/08 06:33:41;;;;;;;6.72;5.72;;;;;;;20.25;93.59;101726.53;4909919;29;20056;-74
2021/06/08 06:36:08;;;;;;;10.23;6.03;;;;;;;20.28;93.23;101733.19;4928886;29;20563;-74
2021/06/08 06:38:35;;;;;;;9.75;6.03;;;;;;;20.21;93.74;101723.03;4912655;29;20054;-74
2021/06/08 06:41:07;;;;;;;10.23;5.78;;;;;;;20.39;91.86;101731.22;4909362;29;20044;-74
2021/06/08 06:43:35;;;;;;;7.32;5.63;;;;;;;20.39;91.76;101733.94;4913381;29;20131;-74
2021/06/08 06:46:00;;;;;;;8.07;5.45;;;;;;;20.41;92.15;101732.38;4946368;28;20050;-74
2021/06/08 06:48:26;;;;;;;8.73;6.38;;;;;;;20.58;91.22;101731.53;4989381;28;20049;-74
2021/06/08 06:50:53;;;;;;;13.70;6.07;;;;;;;20.47;91.41;101730.81;4974545;28;20101;-74
2021/06/08 06:53:19;;;;;;;9.32;6.57;;;;;;;20.42;92.41;101730.44;4980471;28;20209;-74
2021/06/08 06:55:51;;;;;;;10.35;6.40;;;;;;;20.60;91.93;101734.66;4982926;28;20085;-74
2021/06/08 06:58:21;;;;;;;12.35;6.40;;;;;;;20.78;91.33;101734.59;4974806;28;20097;-74
2021/06/08 07:00:47;;;;;;;8.05;5.53;;;;;;;20.82;91.04;101740.84;4978964;28;20049;-74
2021/06/08 07:03:15;;;;;;;11.00;6.10;;;;;;;20.72;91.44;101733.44;4982978;28;20062;-74
2021/06/08 07:05:44;;;;;;;8.93;6.45;;;;;;;20.65;91.05;101736.22;4983395;28;20035;-74
2021/06/08 07:08:11;;;;;;;10.80;6.47;;;;;;;20.66;91.82;101732.28;5021946;28;20040;-74
2021/06/08 07:10:38;;;;;;;8.52;6.60;;;;;;;20.54;91.60;101735.47;5065141;28;20067;-74
2021/06/08 07:13:06;;;;;;;11.07;6.45;;;;;;;20.64;92.33;101740.13;5067535;28;20047;-74
2021/06/08 07:15:33;;;;;;;9.38;6.38;;;;;;;20.84;91.21;101741.25;5070592;28;20033;-74
2021/06/08 07:17:59;;;;;;;9.80;6.00;;;;;;;20.89;91.54;101743.56;5071444;28;20037;-74
2021/06/08 07:20:27;;;;;;;8.20;6.38;;;;;;;20.95;91.46;101741.97;5066661;28;20024;-74
2021/06/08 07:22:53;;;;;;;7.43;6.28;;;;;;;21.08;89.76;101745.06;5075931;28;20032;-74
2021/06/08 07:25:20;;;;;;;12.32;6.30;;;;;;;21.13;89.15;101747.38;5066707;28;20024;-74
2021/06/08 07:27:47;;;;;;;8.48;6.43;;;;;;;21.32;89.41;101750.41;5071281;28;20377;-73
2021/06/08 07:30:15;;;;;;;9.25;5.90;;;;;;;21.40;88.30;101754.69;5065743;28;20094;-74
2021/06/08 07:32:48;;;;;;;7.28;5.72;;;;;;;21.55;88.62;101747.91;5067402;28;20412;-74
2021/06/08 07:35:30;;;;;;;9.63;5.88;;;;;;;21.58;88.01;101755.31;5070173;28;20032;-74
2021/06/08 07:37:59;;;;;;;10.13;6.20;;;;;;;21.70;86.70;101751.31;5068190;28;20561;-74
2021/06/08 07:40:35;;;;;;;12.15;5.70;;;;;;;21.81;86.82;101752.06;5067382;28;20087;-74
2021/06/08 07:43:04;;;;;;;10.48;6.07;;;;;;;21.97;86.69;101755.03;5066258;28;20032;-74
2021/06/08 07:45:35;;;;;;;7.53;5.63;;;;;;;22.12;86.70;101747.47;5061462;28;20036;-74
2021/06/08 07:48:02;;;;;;;;;;;;;;;22.20;85.40;101751.72;5070492;28;20036;-74
2021/06/08 07:50:37;;;;;;;11.13;5.72;;;;;;;22.44;84.93;101747.91;5067829;28;19965;-74
2021/06/08 07:53:03;;;;;;;11.00;6.50;;;;;;;22.82;83.76;101748.72;5066492;28;20067;-74
2021/06/08 07:55:30;;;;;;;8.75;5.35;;;;;;;22.91;82.74;101747.00;5066594;28;20068;-74
2021/06/08 07:57:56;;;;;;;9.10;5.60;;;;;;;23.05;82.21;101757.81;5062998;28;20040;-74
2021/06/08 08:00:21;;;;;;;9.00;5.65;;;;;;;23.09;80.13;101758.53;5061659;28;20039;-73
2021/06/08 08:02:50;;;;;;;8.23;5.60;;;;;;;22.93;81.88;101757.59;5067558;28;20033;-74
2021/06/08 08:05:17;;;;;;;9.73;6.20;;;;;;;23.34;81.65;101757.47;5065537;28;20035;-74
2021/06/08 08:07:44;;;;;;;7.40;5.68;;;;;;;23.32;80.10;101765.34;5063736;28;20028;-75
2021/06/08 08:10:11;;;;;;;9.73;5.57;;;;;;;23.33;81.46;101761.38;5065196;28;20028;-74
2021/06/08 08:12:42;;;;;;;8.45;5.88;;;;;;;23.10;80.30;101762.84;5063306;28;20037;-75
2021/06/08 08:15:09;;;;;;;;;;;;;;;23.23;81.98;101768.56;5064855;28;20044;-74
2021/06/08 08:17:39;;;;;;;7.95;5.40;;;;;;;23.50;79.08;101768.63;5067377;28;19916;-75
2021/06/08 08:20:06;;;;;;;6.93;5.55;;;;;;;23.50;78.83;101763.88;5066534;28;20032;-74
2021/06/08 08:22:33;;;;;;;8.57;5.45;;;;;;;23.67;78.94;101767.56;5066431;28;20024;-74
2021/06/08 08:24:58;;;;;;;11.23;5.63;;;;;;;23.64;75.71;101763.69;5066074;28;20056;-74
2021/06/08 08:27:25;;;;;;;6.72;5.18;;;;;;;23.92;77.40;101762.44;5069099;28;20052;-74
2021/06/08 08:29:51;;;;;;;8.10;4.50;;;;;;;24.17;75.28;101768.34;5065673;28;20028;-75
2021/06/08 08:32:18;;;;;;;5.60;4.50;;;;;;;24.39;75.27;101774.25;5059683;28;20158;-75
2021/06/08 08:34:44;;;;;;;7.78;4.97;;;;;;;24.65;73.33;101756.81;5067932;28;20040;-75
2021/06/08 08:37:10;;;;;;;11.18;4.65;;;;;;;24.69;74.17;101760.28;5062724;28;20032;-74
2021/06/08 08:39:36;;;;;;;7.80;4.95;;;;;;;24.90;72.89;101763.41;5060516;28;20044;-75
2021/06/08 08:42:05;;;;;;;5.22;4.22;;;;;;;24.91;72.06;101759.44;5059810;28;20064;-75
2021/06/08 08:44:31;;;;;;;6.45;4.70;;;;;;;24.88;72.91;101756.75;5060114;28;20040;-75
2021/06/08 08:46:56;;;;;;;5.25;4.35;;;;;;;25.21;71.99;101754.84;5067154;28;20087;-75
2021/06/08 08:49:22;;;;;;;8.15;5.18;;;;;;;25.01;70.20;101757.66;5062026;28;20032;-75
2021/06/08 08:51:48;;;;;;;5.70;4.47;;;;;;;24.74;70.88;101760.56;5067339;28;20492;-75
2021/06/08 08:54:19;;;;;;;8.23;4.55;;;;;;;24.70;71.58;101765.34;5066701;28;20047;-75
2021/06/08 08:56:45;;;;;;;7.77;4.47;;;;;;;24.79;73.73;101757.34;5065747;28;20041;-76
2021/06/08 08:59:14;;;;;;;8.00;4.25;;;;;;;24.95;73.53;101749.09;5066994;28;20381;-74
2021/06/08 09:01:43;;;;;;;6.85;4.80;;;;;;;25.04;71.81;101756.81;5066316;28;20146;-75
2021/06/08 09:04:09;;;;;;;10.57;4.75;;;;;;;25.03;70.86;101756.03;5063361;28;20085;-75
2021/06/08 09:06:36;;;;;;;6.30;4.60;;;;;;;24.93;71.52;101754.25;5067332;28;20025;-75
2021/06/08 09:09:04;;;;;;;7.65;4.70;;;;;;;24.97;71.11;101748.69;5064005;28;20428;-74
2021/06/08 09:11:37;;;;;;;9.98;5.03;;;;;;;24.98;71.69;101753.00;5062444;28;20617;-74
2021/06/08 09:14:04;;;;;;;6.47;4.35;;;;;;;24.91;72.02;101753.91;5067437;28;20431;-75
2021/06/08 09:16:31;;;;;;;6.70;4.40;;;;;;;25.27;71.73;101753.16;5066395;28;20029;-75
2021/06/08 09:18:56;;;;;;;7.22;4.35;;;;;;;25.17;71.20;101749.41;5063033;28;20119;-75
2021/06/08 09:21:26;;;;;;;8.13;3.88;;;;;;;25.23;73.01;101752.44;5062331;28;20506;-75
2021/06/08 09:23:52;;;;;;;10.63;4.57;;;;;;;25.25;71.22;101752.78;5065138;28;20032;-75
2021/06/08 09:26:18;;;;;;;8.20;4.70;;;;;;;25.30;70.99;101749.53;5061133;28;20089;-75
2021/06/08 09:28:45;;;;;;;10.25;4.93;;;;;;;25.35;70.55;101755.31;5067610;28;20060;-75
2021/06/08 09:31:12;;;;;;;8.50;4.55;;;;;;;25.00;70.48;101747.84;5057193;28;20087;-75
2021/06/08 09:33:54;;;;;;;6.35;4.38;;;;;;;25.34;71.60;101753.00;5047784;28;20485;-76
2021/06/08 09:36:23;;;;;;;7.68;4.22;;;;;;;25.25;72.55;101750.03;5064890;28;20043;-75
2021/06/08 09:38:54;;;;;;;5.47;4.25;;;;;;;25.25;71.91;101750.81;5066325;28;20028;-75
2021/06/08 09:41:23;;;;;;;6.55;4.65;;;;;;;25.28;71.61;101754.72;5063421;28;20610;-76
2021/06/08 09:43:56;;;;;;;4.72;4.20;;;;;;;25.29;69.02;101750.75;5063764;28;20037;-76
2021/06/08 09:46:27;;;;;;;9.60;4.72;;;;;;;25.18;68.90;101750.22;5065474;28;20033;-75
2021/06/08 09:48:57;;;;;;;6.20;3.92;;;;;;;25.20;70.84;101742.28;5059968;28;20032;-75
2021/06/08 09:51:24;;;;;;;4.47;3.53;;;;;;;25.47;70.99;101742.88;5062500;28;20471;-76
2021/06/08 09:53:50;;;;;;;7.10;3.72;;;;;;;25.60;69.30;101754.78;5063564;28;20185;-75
2021/06/08 09:56:19;;;;;;;7.03;3.72;;;;;;;25.50;70.19;101748.28;5065428;28;20028;-75
2021/06/08 09:58:51;;;;;;;5.07;3.90;;;;;;;25.70;66.91;101746.25;5064242;28;20051;-74
2021/06/08 10:01:27;;;;;;;6.60;3.00;;;;;;;25.63;68.31;101748.38;5065123;28;20025;-75
2021/06/08 10:03:57;;;;;;;6.10;3.58;;;;;;;25.77;65.68;101737.78;5063607;28;20085;-75
2021/06/08 10:06:25;;;;;;;4.93;3.05;;;;;;;25.73;66.29;101747.34;5061034;28;20062;-75
2021/06/08 10:08:59;;;;;;;6.28;3.50;;;;;;;25.75;66.03;101748.47;5066015;28;20389;-75
2021/06/08 10:11:30;;;;;;;5.97;3.75;;;;;;;25.80;65.75;101739.66;5066308;28;20115;-75
2021/06/08 10:14:14;;;;;;;6.95;3.67;;;;;;;26.04;65.89;101731.97;5062298;28;20047;-73
2021/06/08 10:16:41;;;;;;;4.68;3.70;;;;;;;25.91;64.64;101736.66;5064790;28;20111;-73
2021/06/08 10:19:07;;;;;;;4.60;2.90;;;;;;;26.12;63.91;101741.66;5056898;28;20041;-72
